Aviation Digital Data Service (ADDS)

Output produced by METARs form (1309 UTC 26 July 2014)
found at http://aviationweather.gov/adds/metars/
 
KBHB 261123Z 2612/2712 22003KT P6SM SCT250 
     FM261700 22011KT P6SM SCT070 
     FM262300 20009KT P6SM SCT070 BKN250 
     FM270600 18005KT 3SM BR SCT008 AMD LTD TO CLD VIS AND WIND